createdAt,value
2022-12-18T00:00:09.307Z,96953.22
2022-12-18T00:02:37.614Z,96944.06
2022-12-18T00:05:06.329Z,96941.09
2022-12-18T00:07:34.453Z,96945.25
2022-12-18T00:10:02.625Z,96960.75
2022-12-18T00:12:30.870Z,96954.38
2022-12-18T00:14:58.893Z,96956.41
2022-12-18T00:17:28.331Z,96956.78
2022-12-18T00:19:56.406Z,96952.81
2022-12-18T00:22:24.475Z,96958.38
2022-12-18T00:24:52.632Z,96962.19
2022-12-18T00:27:20.706Z,96965.97
2022-12-18T00:29:50.358Z,96967.19
2022-12-18T00:32:18.591Z,96971.22
2022-12-18T00:34:48.007Z,96976.00
2022-12-18T00:37:20.071Z,96971.84
2022-12-18T00:39:50.648Z,96975.19
2022-12-18T00:42:36.444Z,96974.94
2022-12-18T00:45:10.674Z,96983.69
2022-12-18T00:47:40.521Z,96993.03
2022-12-18T00:50:11.712Z,96983.09
2022-12-18T00:52:39.809Z,96995.03
2022-12-18T00:55:08.647Z,96997.00
2022-12-18T00:57:36.813Z,96995.41
2022-12-18T01:00:06.318Z,96999.34
2022-12-18T01:02:34.544Z,97010.06
2022-12-18T01:05:02.874Z,97003.28
2022-12-18T01:07:32.444Z,97003.88
2022-12-18T01:10:00.498Z,97007.28
2022-12-18T01:12:28.600Z,97008.41
2022-12-18T01:14:56.783Z,97008.53
2022-12-18T01:17:24.957Z,97013.47
2022-12-18T01:19:53.046Z,97016.34
2022-12-18T01:22:21.259Z,97020.66
2022-12-18T01:24:50.928Z,97012.69
2022-12-18T01:27:18.968Z,97019.38
2022-12-18T01:29:47.011Z,97013.97
2022-12-18T01:32:15.019Z,97015.56
2022-12-18T01:34:43.118Z,97012.13
2022-12-18T01:37:11.690Z,97013.91
2022-12-18T01:39:40.172Z,97029.09
2022-12-18T01:42:14.070Z,97028.34
2022-12-18T01:44:59.403Z,97023.81
2022-12-18T01:47:30.921Z,97029.81
2022-12-18T01:50:01.696Z,97038.19
2022-12-18T01:52:34.298Z,97030.94
2022-12-18T01:55:04.352Z,97034.56
2022-12-18T01:57:34.248Z,97036.19
2022-12-18T02:00:07.235Z,97027.09
2022-12-18T02:02:35.692Z,97040.25
2022-12-18T02:05:05.447Z,97046.34
2022-12-18T02:07:44.986Z,97047.66
2022-12-18T02:10:17.756Z,97047.22
2022-12-18T02:12:53.875Z,97042.97
2022-12-18T02:15:28.309Z,97042.56
2022-12-18T02:18:02.129Z,97056.63
2022-12-18T02:20:38.034Z,97053.38
2022-12-18T02:23:22.323Z,97049.13
2022-12-18T02:26:08.810Z,97049.06
2022-12-18T02:28:43.439Z,97061.53
2022-12-18T02:31:16.357Z,97058.69
2022-12-18T02:33:47.105Z,97037.19
2022-12-18T02:36:16.975Z,97041.25
2022-12-18T02:38:46.862Z,97044.09
2022-12-18T02:41:18.370Z,97038.91
2022-12-18T02:43:50.038Z,97047.72
2022-12-18T02:46:32.871Z,97053.06
2022-12-18T02:49:08.947Z,97061.59
2022-12-18T02:51:45.265Z,97061.72
2022-12-18T02:54:23.272Z,97063.94
2022-12-18T02:56:56.622Z,97059.56
2022-12-18T02:59:31.613Z,97061.78
2022-12-18T03:02:05.204Z,97063.13
2022-12-18T03:04:41.747Z,97074.25
2022-12-18T03:07:13.703Z,97062.41
2022-12-18T03:09:46.761Z,97059.69
2022-12-18T03:12:26.979Z,97056.19
2022-12-18T03:15:02.101Z,97059.94
2022-12-18T03:17:33.127Z,97060.81
2022-12-18T03:20:05.504Z,97064.47
2022-12-18T03:22:36.239Z,97066.00
2022-12-18T03:25:08.400Z,97062.75
2022-12-18T03:27:40.757Z,97064.13
2022-12-18T03:30:13.400Z,97063.84
2022-12-18T03:32:45.419Z,97072.22
2022-12-18T03:35:16.560Z,97072.03
2022-12-18T03:37:44.700Z,97072.22
2022-12-18T03:40:13.491Z,97089.03
2022-12-18T03:42:52.092Z,97094.47
2022-12-18T03:45:25.734Z,97086.38
2022-12-18T03:48:03.405Z,97089.16
2022-12-18T03:50:40.741Z,97090.31
2022-12-18T03:53:22.351Z,97092.25
2022-12-18T03:55:52.657Z,97094.22
2022-12-18T03:58:25.589Z,97095.56
2022-12-18T04:00:56.712Z,97098.50
2022-12-18T04:03:26.941Z,97101.69
2022-12-18T04:05:57.620Z,97097.69
2022-12-18T04:08:27.023Z,97104.63
2022-12-18T04:10:55.342Z,97094.03
2022-12-18T04:13:31.893Z,97101.22
2022-12-18T04:16:00.034Z,97093.41
2022-12-18T04:18:28.126Z,97109.31
2022-12-18T04:20:56.700Z,97106.56
2022-12-18T04:23:25.061Z,97107.00
2022-12-18T04:25:53.192Z,97111.47
2022-12-18T04:28:21.396Z,97107.56
2022-12-18T04:30:51.701Z,97114.31
2022-12-18T04:33:20.280Z,97108.53
2022-12-18T04:35:48.355Z,97113.69
2022-12-18T04:38:16.595Z,97114.31
2022-12-18T04:40:44.814Z,97109.06
2022-12-18T04:43:13.088Z,97114.13
2022-12-18T04:45:41.681Z,97119.91
2022-12-18T04:48:11.155Z,97128.97
2022-12-18T04:50:39.603Z,97119.72
2022-12-18T04:53:09.162Z,97125.69
2022-12-18T04:55:38.087Z,97127.47
2022-12-18T04:58:06.838Z,97131.38
2022-12-18T05:00:35.015Z,97123.81
2022-12-18T05:03:03.668Z,97132.63
2022-12-18T05:05:33.391Z,97128.53
2022-12-18T05:08:02.257Z,97131.28
2022-12-18T05:10:37.543Z,97133.69
2022-12-18T05:13:06.368Z,97137.25
2022-12-18T05:15:35.440Z,97142.41
2022-12-18T05:18:04.849Z,97132.97
2022-12-18T05:20:34.378Z,97150.91
2022-12-18T05:23:02.569Z,97148.13
2022-12-18T05:25:30.782Z,97146.81
2022-12-18T05:27:59.375Z,97146.88
2022-12-18T05:30:28.594Z,97146.94
2022-12-18T05:32:56.821Z,97138.97
2022-12-18T05:35:24.889Z,97159.13
2022-12-18T05:37:54.325Z,97154.25
2022-12-18T05:40:22.343Z,97159.34
2022-12-18T05:42:50.327Z,97164.16
2022-12-18T05:45:18.666Z,97159.34
2022-12-18T05:47:46.769Z,97171.31
2022-12-18T05:50:14.984Z,97154.94
2022-12-18T05:52:43.042Z,97172.34
2022-12-18T05:55:13.190Z,97171.09
2022-12-18T05:57:41.333Z,97172.69
2022-12-18T06:00:10.920Z,97173.66
2022-12-18T06:02:39.097Z,97178.81
2022-12-18T06:05:08.157Z,97183.97
2022-12-18T06:07:36.344Z,97177.19
2022-12-18T06:10:04.742Z,97178.97
2022-12-18T06:12:34.930Z,97177.25
2022-12-18T06:15:03.384Z,97179.03
2022-12-18T06:17:32.013Z,97181.44
2022-12-18T06:20:00.140Z,97187.38
2022-12-18T06:22:28.316Z,97181.78
2022-12-18T06:24:56.310Z,97190.81
2022-12-18T06:27:24.518Z,97185.16
2022-12-18T06:29:53.978Z,97191.56
2022-12-18T06:32:22.129Z,97194.59
2022-12-18T06:34:50.136Z,97200.38
2022-12-18T06:37:18.110Z,97209.25
2022-12-18T06:39:46.112Z,97205.88
2022-12-18T06:42:14.186Z,97210.38
2022-12-18T06:44:42.386Z,97212.31
2022-12-18T06:47:12.075Z,97219.75
2022-12-18T06:49:40.146Z,97216.72
2022-12-18T06:52:08.205Z,97215.28
2022-12-18T06:54:36.263Z,97213.34
2022-12-18T06:57:04.346Z,97215.41
2022-12-18T06:59:32.407Z,97213.94
2022-12-18T07:02:00.551Z,97220.69
2022-12-18T07:04:31.750Z,97224.53
2022-12-18T07:07:00.128Z,97226.75
2022-12-18T07:09:31.034Z,97219.31
2022-12-18T07:11:59.184Z,97233.28
2022-12-18T07:14:27.689Z,97230.53
2022-12-18T07:16:55.851Z,97236.38
2022-12-18T07:19:26.659Z,97238.66
2022-12-18T07:21:56.139Z,97238.53
2022-12-18T07:24:24.172Z,97244.81
2022-12-18T07:26:52.247Z,97245.63
2022-12-18T07:29:20.612Z,97249.63
2022-12-18T07:31:48.754Z,97259.13
2022-12-18T07:34:17.536Z,97262.22
2022-12-18T07:36:45.650Z,97268.97
2022-12-18T07:39:15.066Z,97270.41
2022-12-18T07:41:47.579Z,97272.47
2022-12-18T07:44:15.990Z,97278.59
2022-12-18T07:46:44.093Z,97280.53
2022-12-18T07:49:12.318Z,97284.88
2022-12-18T07:51:40.439Z,97275.25
2022-12-18T07:54:08.581Z,97283.44
2022-12-18T07:56:38.045Z,97286.69
2022-12-18T07:59:06.142Z,97285.06
2022-12-18T08:01:35.133Z,97288.63
2022-12-18T08:04:03.203Z,97291.50
2022-12-18T08:06:31.912Z,97301.72
2022-12-18T08:09:00.191Z,97308.41
2022-12-18T08:11:30.111Z,97299.63
2022-12-18T08:14:00.596Z,97301.31
2022-12-18T08:16:35.304Z,97294.03
2022-12-18T08:19:03.508Z,97307.50
2022-12-18T08:21:32.947Z,97311.06
2022-12-18T08:24:02.827Z,97292.72
2022-12-18T08:26:33.394Z,97302.34
2022-12-18T08:29:03.169Z,97300.75
2022-12-18T08:31:32.748Z,97308.44
2022-12-18T08:34:00.964Z,97302.59
2022-12-18T08:36:29.169Z,97303.50
2022-12-18T08:38:57.523Z,97310.03
2022-12-18T08:41:26.027Z,97310.19
2022-12-18T08:44:11.872Z,97317.03
2022-12-18T08:46:43.554Z,97322.88
2022-12-18T08:49:13.160Z,97316.78
2022-12-18T08:51:41.649Z,97310.03
2022-12-18T08:54:10.135Z,97307.97
2022-12-18T08:56:38.580Z,97314.22
2022-12-18T08:59:06.693Z,97317.13
2022-12-18T09:01:35.500Z,97310.31
2022-12-18T09:04:05.411Z,97312.06
2022-12-18T09:06:35.780Z,97293.69
2022-12-18T09:09:05.596Z,97298.69
2022-12-18T09:11:34.945Z,97298.56
2022-12-18T09:14:03.999Z,97299.88
2022-12-18T09:16:36.066Z,97305.19
2022-12-18T09:19:07.815Z,97294.91
2022-12-18T09:21:37.611Z,97289.13
2022-12-18T09:24:08.675Z,97297.03
2022-12-18T09:26:37.469Z,97306.00
2022-12-18T09:29:05.949Z,97301.78
2022-12-18T09:31:34.129Z,97306.25
2022-12-18T09:34:02.271Z,97312.66
2022-12-18T09:36:31.760Z,97297.47
2022-12-18T09:39:03.733Z,97294.56
2022-12-18T09:41:45.140Z,97294.69
2022-12-18T09:44:21.086Z,97291.88
2022-12-18T09:46:54.814Z,97291.44
2022-12-18T09:49:27.420Z,97288.81
2022-12-18T09:52:02.187Z,97292.63
2022-12-18T09:54:38.090Z,97282.25
2022-12-18T09:57:06.689Z,97283.59
2022-12-18T09:59:38.404Z,97287.84
2022-12-18T10:02:23.404Z,97283.75
2022-12-18T10:05:05.078Z,97286.78
2022-12-18T10:07:45.116Z,97284.56
2022-12-18T10:10:25.159Z,97287.78
2022-12-18T10:13:04.753Z,97284.56
2022-12-18T10:15:40.061Z,97283.94
2022-12-18T10:18:24.438Z,97295.31
2022-12-18T10:20:57.608Z,97278.78
2022-12-18T10:23:33.943Z,97269.53
2022-12-18T10:26:05.879Z,97282.00
2022-12-18T10:28:36.143Z,97259.31
2022-12-18T10:31:04.465Z,97273.00
2022-12-18T10:33:34.804Z,97267.03
2022-12-18T10:36:03.957Z,97250.66
2022-12-18T10:38:34.354Z,97261.97
2022-12-18T10:41:04.602Z,97263.38
2022-12-18T10:43:34.548Z,97250.75
2022-12-18T10:46:15.593Z,97236.50
2022-12-18T10:48:54.127Z,97227.25
2022-12-18T10:51:25.181Z,97235.81
2022-12-18T10:54:02.097Z,97215.59
2022-12-18T10:56:32.796Z,97226.78
2022-12-18T10:59:03.449Z,97219.03
2022-12-18T11:01:49.635Z,97224.09
2022-12-18T11:04:21.781Z,97233.22
2022-12-18T11:07:01.245Z,97226.75
2022-12-18T11:09:32.929Z,97222.69
2022-12-18T11:12:03.274Z,97221.53
2022-12-18T11:14:34.763Z,97228.41
2022-12-18T11:17:24.897Z,97225.75
2022-12-18T11:19:56.266Z,97226.81
2022-12-18T11:22:28.908Z,97221.47
2022-12-18T11:25:31.261Z,97223.94
2022-12-18T11:27:53.063Z,97212.06
2022-12-18T11:30:25.992Z,97213.34
2022-12-18T11:33:00.043Z,97207.06
2022-12-18T11:35:44.946Z,97191.97
2022-12-18T11:38:23.867Z,97201.59
2022-12-18T11:40:58.695Z,97183.69
2022-12-18T11:43:32.105Z,97191.69
2022-12-18T11:46:06.060Z,97172.16
2022-12-18T11:48:39.801Z,97184.94
2022-12-18T11:51:16.933Z,97162.59
2022-12-18T11:53:45.287Z,97158.00
2022-12-18T11:56:31.060Z,97162.16
2022-12-18T11:59:11.921Z,97169.13
2022-12-18T12:01:51.267Z,97173.69
2022-12-18T12:04:51.772Z,97150.13
2022-12-18T12:07:40.413Z,97167.28
2022-12-18T12:10:26.583Z,97161.09
2022-12-18T12:13:11.775Z,97147.69
2022-12-18T12:15:51.445Z,97150.06
2022-12-18T12:18:30.517Z,97146.69
2022-12-18T12:21:05.915Z,97144.81
2022-12-18T12:23:45.335Z,97134.75
2022-12-18T12:26:20.534Z,97128.28
2022-12-18T12:29:10.443Z,97121.03
2022-12-18T12:31:50.431Z,97114.63
2022-12-18T12:34:22.674Z,97121.16
2022-12-18T12:37:05.507Z,97110.34
2022-12-18T12:39:38.196Z,97110.94
2022-12-18T12:42:40.100Z,97101.69
2022-12-18T12:45:23.225Z,97091.66
2022-12-18T12:47:53.990Z,97094.22
2022-12-18T12:50:24.056Z,97084.47
2022-12-18T12:52:55.676Z,97079.31
2022-12-18T12:55:26.311Z,97079.53
2022-12-18T12:58:05.286Z,97061.94
2022-12-18T13:00:42.178Z,97062.22
2022-12-18T13:03:19.698Z,97069.63
2022-12-18T13:05:53.256Z,97066.88
2022-12-18T13:08:26.855Z,97070.25
2022-12-18T13:11:13.125Z,97075.47
2022-12-18T13:13:52.022Z,97072.84
2022-12-18T13:16:24.082Z,97065.84
2022-12-18T13:18:53.755Z,97070.84
2022-12-18T13:21:26.133Z,97073.44
2022-12-18T13:23:55.016Z,97073.44
2022-12-18T13:26:41.009Z,97069.03
2022-12-18T13:29:09.221Z,97069.84
2022-12-18T13:32:24.909Z,97073.03
2022-12-18T13:35:27.258Z,97075.03
2022-12-18T13:37:57.259Z,97073.88
2022-12-18T13:40:58.912Z,97067.06
2022-12-18T13:43:44.831Z,97070.09
2022-12-18T13:46:25.061Z,97070.50
2022-12-18T13:48:58.138Z,97074.91
2022-12-18T13:51:27.858Z,97071.94
2022-12-18T13:53:59.159Z,97071.94
2022-12-18T13:56:29.626Z,97063.13
2022-12-18T13:59:19.326Z,97065.09
2022-12-18T14:01:55.732Z,97060.28
2022-12-18T14:04:28.831Z,97068.25
2022-12-18T14:07:00.976Z,97067.81
2022-12-18T14:09:33.282Z,97066.03
2022-12-18T14:12:20.214Z,97061.63
2022-12-18T14:14:55.007Z,97062.22
2022-12-18T14:17:25.002Z,97063.38
2022-12-18T14:19:54.981Z,97056.16
2022-12-18T14:22:28.834Z,97058.94
2022-12-18T14:25:16.666Z,97065.72
2022-12-18T14:27:46.680Z,97062.53
2022-12-18T14:30:32.095Z,97064.13
2022-12-18T14:33:07.796Z,97078.13
2022-12-18T14:35:40.510Z,97073.19
2022-12-18T14:38:27.245Z,97054.28
2022-12-18T14:40:56.942Z,97054.75
2022-12-18T14:43:25.106Z,97065.47
2022-12-18T14:45:54.074Z,97049.56
2022-12-18T14:48:28.075Z,97052.72
2022-12-18T14:51:03.563Z,97056.56
2022-12-18T14:53:37.677Z,97061.72
2022-12-18T14:56:16.684Z,97063.94
2022-12-18T14:58:51.074Z,97060.16
2022-12-18T15:01:25.272Z,97064.19
2022-12-18T15:03:54.290Z,97063.22
2022-12-18T15:06:33.402Z,97073.19
2022-12-18T15:09:03.454Z,97064.50
2022-12-18T15:11:37.088Z,97063.91
2022-12-18T15:14:34.335Z,97060.97
2022-12-18T15:17:04.331Z,97063.75
2022-12-18T15:19:39.133Z,97065.75
2022-12-18T15:22:19.853Z,97070.19
2022-12-18T15:24:48.955Z,97072.00
2022-12-18T15:27:29.905Z,97075.38
2022-12-18T15:30:21.103Z,97080.00
2022-12-18T15:32:50.394Z,97078.81
2022-12-18T15:35:21.298Z,97085.63
2022-12-18T15:37:51.290Z,97076.22
2022-12-18T15:40:21.499Z,97081.63
2022-12-18T15:43:08.113Z,97081.44
2022-12-18T15:45:36.327Z,97088.63
2022-12-18T15:48:04.607Z,97090.00
2022-12-18T15:50:32.769Z,97091.59
2022-12-18T15:53:02.266Z,97094.19
2022-12-18T15:55:48.496Z,97096.19
2022-12-18T15:58:16.658Z,97099.22
2022-12-18T16:00:44.731Z,97104.81
2022-12-18T16:03:14.978Z,97107.41
2022-12-18T16:05:43.161Z,97097.03
2022-12-18T16:08:12.491Z,97099.81
2022-12-18T16:10:40.571Z,97112.03
2022-12-18T16:13:11.687Z,97111.03
2022-12-18T16:15:39.769Z,97103.88
2022-12-18T16:18:07.914Z,97119.03
2022-12-18T16:20:35.945Z,97103.09
2022-12-18T16:23:03.987Z,97099.13
2022-12-18T16:25:34.055Z,97107.31
2022-12-18T16:28:02.231Z,97106.31
2022-12-18T16:30:36.225Z,97112.31
2022-12-18T16:33:07.695Z,97117.91
2022-12-18T16:35:38.177Z,97112.72
2022-12-18T16:38:06.584Z,97115.09
2022-12-18T16:40:56.059Z,97112.31
2022-12-18T16:43:24.271Z,97107.13
2022-12-18T16:45:52.379Z,97118.31
2022-12-18T16:48:20.400Z,97113.91
2022-12-18T16:50:48.377Z,97107.53
2022-12-18T16:53:16.403Z,97118.50
2022-12-18T16:55:46.241Z,97115.50
2022-12-18T16:58:14.250Z,97121.09
2022-12-18T17:00:42.493Z,97111.72
2022-12-18T17:03:10.885Z,97100.34
2022-12-18T17:05:40.521Z,97119.50
2022-12-18T17:08:08.895Z,97119.91
2022-12-18T17:10:38.148Z,97110.31
2022-12-18T17:13:07.886Z,97114.31
2022-12-18T17:15:36.766Z,97098.94
2022-12-18T17:18:05.579Z,97110.69
2022-12-18T17:20:33.725Z,97127.84
2022-12-18T17:23:01.865Z,97114.28
2022-12-18T17:25:31.251Z,97112.28
2022-12-18T17:27:59.389Z,97121.66
2022-12-18T17:30:29.062Z,97097.13
2022-12-18T17:32:57.202Z,97117.06
2022-12-18T17:35:25.432Z,97099.94
2022-12-18T17:37:53.629Z,97110.28
2022-12-18T17:40:21.781Z,97112.50
2022-12-18T17:42:51.474Z,97125.84
2022-12-18T17:45:19.968Z,97115.47
2022-12-18T17:47:49.713Z,97109.88
2022-12-18T17:50:18.120Z,97121.03
2022-12-18T17:52:46.442Z,97112.69
2022-12-18T17:55:14.611Z,97139.38
2022-12-18T17:57:43.027Z,97127.22
2022-12-18T18:00:12.678Z,97119.84
2022-12-18T18:02:41.168Z,97136.19
2022-12-18T18:05:12.022Z,97140.16
2022-12-18T18:07:42.374Z,97143.75
2022-12-18T18:10:11.073Z,97138.56
2022-12-18T18:12:56.598Z,97133.38
2022-12-18T18:15:24.716Z,97149.72
2022-12-18T18:17:52.903Z,97143.75
2022-12-18T18:20:22.930Z,97151.75
2022-12-18T18:22:51.157Z,97141.00
2022-12-18T18:25:19.289Z,97136.78
2022-12-18T18:27:47.765Z,97149.16
2022-12-18T18:30:16.519Z,97144.56
2022-12-18T18:32:44.615Z,97156.91
2022-12-18T18:35:30.907Z,97141.41
2022-12-18T18:38:04.339Z,97138.97
2022-12-18T18:40:32.419Z,97144.16
2022-12-18T18:43:00.588Z,97147.38
2022-12-18T18:45:30.047Z,97142.19
2022-12-18T18:47:58.977Z,97140.16
2022-12-18T18:50:27.527Z,97129.81
2022-12-18T18:52:55.613Z,97136.19
2022-12-18T18:55:25.515Z,97140.94
2022-12-18T18:57:53.940Z,97157.47
2022-12-18T19:00:22.051Z,97162.06
2022-12-18T19:02:51.584Z,97159.25
2022-12-18T19:05:22.336Z,97162.41
2022-12-18T19:07:50.486Z,97160.63
2022-12-18T19:10:18.646Z,97157.59
2022-12-18T19:13:05.494Z,97167.91
2022-12-18T19:15:34.811Z,97161.09
2022-12-18T19:18:02.876Z,97160.72
2022-12-18T19:20:31.552Z,97155.38
2022-12-18T19:22:59.618Z,97157.75
2022-12-18T19:25:40.386Z,97165.53
2022-12-18T19:28:18.980Z,97138.81
2022-12-18T19:30:55.374Z,97145.28
2022-12-18T19:33:44.326Z,97146.03
2022-12-18T19:36:15.347Z,97132.66
2022-12-18T19:38:43.710Z,97153.16
2022-12-18T19:41:13.927Z,97157.56
2022-12-18T19:43:44.811Z,97146.63
2022-12-18T19:46:16.273Z,97147.63
2022-12-18T19:48:46.336Z,97143.63
2022-12-18T19:51:17.512Z,97146.22
2022-12-18T19:53:45.890Z,97152.59
2022-12-18T19:56:16.043Z,97153.81
2022-12-18T19:58:46.046Z,97160.59
2022-12-18T20:01:16.665Z,97147.03
2022-12-18T20:03:51.588Z,97156.47
2022-12-18T20:06:26.246Z,97161.50
2022-12-18T20:09:00.650Z,97155.16
2022-12-18T20:11:29.458Z,97142.44
2022-12-18T20:13:59.543Z,97134.91
2022-12-18T20:16:27.871Z,97139.91
2022-12-18T20:18:56.292Z,97148.88
2022-12-18T20:21:25.376Z,97138.91
2022-12-18T20:23:54.596Z,97136.09
2022-12-18T20:26:23.154Z,97156.06
2022-12-18T20:28:51.726Z,97140.28
2022-12-18T20:31:21.314Z,97130.31
2022-12-18T20:33:50.939Z,97130.09
2022-12-18T20:36:23.367Z,97146.78
2022-12-18T20:38:55.291Z,97146.72
2022-12-18T20:41:26.224Z,97153.84
2022-12-18T20:43:58.714Z,97143.69
2022-12-18T20:46:28.253Z,97133.16
2022-12-18T20:48:56.476Z,97135.16
2022-12-18T20:51:24.613Z,97140.56
2022-12-18T20:53:53.506Z,97133.63
2022-12-18T20:56:23.347Z,97142.41
2022-12-18T20:58:54.846Z,97140.84
2022-12-18T21:01:24.568Z,97140.47
2022-12-18T21:03:54.998Z,97127.31
2022-12-18T21:06:24.480Z,97134.50
2022-12-18T21:08:53.172Z,97132.97
2022-12-18T21:11:46.932Z,97131.81
2022-12-18T21:14:17.343Z,97133.59
2022-12-18T21:16:46.132Z,97129.84
2022-12-18T21:19:19.034Z,97118.28
2022-12-18T21:21:47.356Z,97130.66
2022-12-18T21:24:15.626Z,97128.47
2022-12-18T21:26:46.168Z,97129.06
2022-12-18T21:29:15.927Z,97137.47
2022-12-18T21:31:44.493Z,97140.44
2022-12-18T21:34:18.319Z,97131.88
2022-12-18T21:36:47.228Z,97124.69
2022-12-18T21:39:17.265Z,97131.47
2022-12-18T21:42:03.253Z,97127.88
2022-12-18T21:44:32.797Z,97114.31
2022-12-18T21:47:20.904Z,97124.28
2022-12-18T21:49:53.362Z,97134.25
2022-12-18T21:52:32.297Z,97127.47
2022-12-18T21:55:07.970Z,97126.88
2022-12-18T21:57:37.743Z,97126.69
2022-12-18T22:00:06.955Z,97116.91
2022-12-18T22:02:35.132Z,97122.69
2022-12-18T22:05:04.927Z,97120.91
2022-12-18T22:07:33.216Z,97108.31
2022-12-18T22:10:02.214Z,97118.50
2022-12-18T22:12:43.414Z,97111.50
2022-12-18T22:15:21.300Z,97107.31
2022-12-18T22:17:50.635Z,97108.72
2022-12-18T22:20:20.571Z,97111.31
2022-12-18T22:22:51.604Z,97123.47
2022-12-18T22:25:20.122Z,97113.91
2022-12-18T22:28:08.253Z,97121.09
2022-12-18T22:30:35.498Z,97112.50
2022-12-18T22:33:03.943Z,97106.72
2022-12-18T22:35:33.448Z,97105.53
2022-12-18T22:38:02.671Z,97106.31
2022-12-18T22:40:31.169Z,97114.91
2022-12-18T22:42:59.512Z,97116.06
2022-12-18T22:45:27.986Z,97118.88
2022-12-18T22:47:56.246Z,97124.69
2022-12-18T22:50:24.397Z,97118.69
2022-12-18T22:52:53.804Z,97113.50
2022-12-18T22:55:21.802Z,97114.69
2022-12-18T22:57:50.982Z,97108.72
2022-12-18T23:00:22.782Z,97104.28
2022-12-18T23:02:59.418Z,97100.06
2022-12-18T23:05:30.067Z,97086.72
2022-12-18T23:07:59.780Z,97086.72
2022-12-18T23:10:28.795Z,97088.72
2022-12-18T23:12:56.826Z,97098.09
2022-12-18T23:15:28.081Z,97089.09
2022-12-18T23:17:58.680Z,97079.50
2022-12-18T23:20:27.507Z,97078.31
2022-12-18T23:22:55.503Z,97086.31
2022-12-18T23:25:24.894Z,97087.09
2022-12-18T23:27:53.050Z,97075.50
2022-12-18T23:30:21.155Z,97083.47
2022-12-18T23:32:49.339Z,97075.06
2022-12-18T23:35:17.664Z,97079.44
2022-12-18T23:38:01.217Z,97073.03
2022-12-18T23:40:31.282Z,97080.63
2022-12-18T23:43:01.244Z,97078.66
2022-12-18T23:45:29.378Z,97084.63
2022-12-18T23:47:57.487Z,97087.81
2022-12-18T23:50:29.073Z,97089.41
2022-12-18T23:53:05.185Z,97085.78
2022-12-18T23:55:40.713Z,97085.19
2022-12-18T23:58:16.202Z,97085.78
